Howes, South Dakota
Current Conditions -  °F | °C
As of 4:55 AM on Friday 24 Oct 2014 (Local Time) from KPHP Reporting Station
Clear Clear  
Wind Chill: 36°   Ceiling: Unl
Heat Index: 39°   Visibility: 10mi
Dew Point: 32°   Wind: 5mph
Humidity: 76%   Direction: 270°W
Pressure: 29.89"   Gusts: NA
Location:  44.62°N, 102.05°W
Report Text: KPHP 241055Z AUTO 27004KT 10SM CLR 04/00 A2989 RMK AO2 SLP118 T00390000
Loading
Personal Weather Stations






























Interactive Weather Map
Tropical Storm Tracking
New forecast layout! Learn more

10-Day Weather Forecast

Advertisements
Track Severe Weather on mobile